createdAt,value
2022-12-25T00:01:21.762Z,96523.79
2022-12-25T00:03:50.708Z,96526.95
2022-12-25T00:06:18.779Z,96524.22
2022-12-25T00:08:45.609Z,96526.73
2022-12-25T00:11:15.118Z,96525.92
2022-12-25T00:13:42.297Z,96524.22
2022-12-25T00:16:14.942Z,96523.85
2022-12-25T00:18:41.584Z,96529.16
2022-12-25T00:21:08.033Z,96540.63
2022-12-25T00:23:34.989Z,96545.04
2022-12-25T00:26:11.330Z,96545.56
2022-12-25T00:28:38.185Z,96546.23
2022-12-25T00:31:06.877Z,96547.13
2022-12-25T00:33:38.019Z,96546.81
2022-12-25T00:36:06.611Z,96551.30
2022-12-25T00:38:35.255Z,96546.71
2022-12-25T00:41:11.754Z,96546.70
2022-12-25T00:43:38.656Z,96544.40
2022-12-25T00:46:06.427Z,96549.02
2022-12-25T00:48:33.973Z,96548.31
2022-12-25T00:51:03.803Z,96549.23
2022-12-25T00:53:30.352Z,96551.75
2022-12-25T00:56:00.297Z,96555.88
2022-12-25T00:58:29.015Z,96558.96
2022-12-25T01:00:55.809Z,96565.96
2022-12-25T01:03:24.010Z,96572.23
2022-12-25T01:06:07.183Z,96570.86
2022-12-25T01:08:36.790Z,96567.20
2022-12-25T01:11:06.988Z,96567.89
2022-12-25T01:13:36.401Z,96569.48
2022-12-25T01:16:07.336Z,96568.98
2022-12-25T01:18:33.949Z,96574.13
2022-12-25T01:21:09.697Z,96574.36
2022-12-25T01:23:37.182Z,96572.95
2022-12-25T01:26:05.492Z,96570.19
2022-12-25T01:28:32.312Z,96568.05
2022-12-25T01:31:01.831Z,96567.07
2022-12-25T01:33:28.317Z,96566.76
2022-12-25T01:35:55.262Z,96563.34
2022-12-25T01:38:21.703Z,96569.77
2022-12-25T01:40:48.162Z,96570.89
2022-12-25T01:43:23.629Z,96572.81
2022-12-25T01:45:51.877Z,96570.01
2022-12-25T01:48:22.967Z,96577.92
2022-12-25T01:50:57.792Z,96579.50
2022-12-25T01:53:25.655Z,96577.27
2022-12-25T01:55:57.980Z,96580.02
2022-12-25T01:58:25.103Z,96578.58
2022-12-25T02:00:52.657Z,96577.80
2022-12-25T02:03:21.699Z,96577.80
2022-12-25T02:05:48.587Z,96578.31
2022-12-25T02:08:17.798Z,96578.89
2022-12-25T02:10:44.951Z,96575.90
2022-12-25T02:13:15.381Z,96579.69
2022-12-25T02:16:00.532Z,96584.95
2022-12-25T02:18:53.100Z,96584.10
2022-12-25T02:21:50.865Z,96584.27
2022-12-25T02:24:51.028Z,96580.94
2022-12-25T02:27:44.651Z,96579.70
2022-12-25T02:30:11.972Z,96587.77
2022-12-25T02:32:49.526Z,96593.38
2022-12-25T02:35:25.972Z,96593.02
2022-12-25T02:37:58.379Z,96595.42
2022-12-25T02:40:31.149Z,96600.38
2022-12-25T02:43:22.033Z,96605.26
2022-12-25T02:46:12.285Z,96602.05
2022-12-25T02:49:02.437Z,96598.61
2022-12-25T02:51:52.617Z,96602.65
2022-12-25T02:54:42.701Z,96603.17
2022-12-25T02:57:22.862Z,96611.64
2022-12-25T03:00:13.169Z,96610.80
2022-12-25T03:02:53.259Z,96612.45
2022-12-25T03:05:43.472Z,96616.49
2022-12-25T03:08:16.020Z,96611.83
2022-12-25T03:11:03.757Z,96612.96
2022-12-25T03:13:35.979Z,96621.46
2022-12-25T03:16:14.166Z,96626.93
2022-12-25T03:18:41.457Z,96628.49
2022-12-25T03:21:24.374Z,96627.20
2022-12-25T03:24:14.669Z,96631.77
2022-12-25T03:26:54.695Z,96635.84
2022-12-25T03:29:34.945Z,96641.27
2022-12-25T03:32:17.783Z,96641.42
2022-12-25T03:35:15.208Z,96647.21
2022-12-25T03:38:25.410Z,96650.92
2022-12-25T03:41:25.559Z,96650.05
2022-12-25T03:44:25.785Z,96649.43
2022-12-25T03:47:15.906Z,96648.88
2022-12-25T03:50:06.189Z,96653.64
2022-12-25T03:52:46.319Z,96658.33
2022-12-25T03:55:36.551Z,96663.44
2022-12-25T03:58:16.672Z,96654.84
2022-12-25T04:00:56.855Z,96653.39
2022-12-25T04:03:37.047Z,96648.91
2022-12-25T04:06:17.106Z,96651.77
2022-12-25T04:09:03.449Z,96657.82
2022-12-25T04:11:47.446Z,96665.40
2022-12-25T04:14:27.696Z,96665.66
2022-12-25T04:17:07.780Z,96666.27
2022-12-25T04:19:47.898Z,96663.34
2022-12-25T04:22:28.090Z,96672.23
2022-12-25T04:25:08.267Z,96675.37
2022-12-25T04:27:48.453Z,96682.02
2022-12-25T04:30:28.539Z,96680.94
2022-12-25T04:33:08.751Z,96684.42
2022-12-25T04:35:48.840Z,96687.19
2022-12-25T04:38:20.166Z,96684.94
2022-12-25T04:40:46.760Z,96688.66
2022-12-25T04:43:13.177Z,96694.90
2022-12-25T04:45:39.884Z,96696.34
2022-12-25T04:48:06.384Z,96700.77
2022-12-25T04:50:32.970Z,96699.27
2022-12-25T04:52:59.611Z,96706.38
2022-12-25T04:55:26.133Z,96708.25
2022-12-25T04:57:52.618Z,96704.70
2022-12-25T05:00:19.489Z,96710.38
2022-12-25T05:02:46.285Z,96715.45
2022-12-25T05:05:12.892Z,96716.96
2022-12-25T05:07:39.445Z,96720.05
2022-12-25T05:10:06.601Z,96722.81
2022-12-25T05:12:33.185Z,96723.93
2022-12-25T05:14:59.731Z,96725.10
2022-12-25T05:17:26.240Z,96724.70
2022-12-25T05:19:52.711Z,96722.58
2022-12-25T05:22:19.207Z,96720.34
2022-12-25T05:24:45.766Z,96719.96
2022-12-25T05:27:12.256Z,96716.66
2022-12-25T05:29:38.782Z,96721.45
2022-12-25T05:32:05.814Z,96720.54
2022-12-25T05:34:32.253Z,96724.58
2022-12-25T05:36:58.869Z,96722.77
2022-12-25T05:39:25.411Z,96727.48
2022-12-25T05:41:51.853Z,96733.45
2022-12-25T05:44:18.361Z,96737.33
2022-12-25T05:46:44.882Z,96734.01
2022-12-25T05:49:11.518Z,96738.02
2022-12-25T05:51:38.085Z,96738.48
2022-12-25T05:54:04.578Z,96739.09
2022-12-25T05:56:31.192Z,96747.80
2022-12-25T05:58:57.697Z,96753.86
2022-12-25T06:01:27.159Z,96757.17
2022-12-25T06:03:53.924Z,96758.01
2022-12-25T06:06:20.405Z,96764.45
2022-12-25T06:08:46.896Z,96764.33
2022-12-25T06:11:14.446Z,96767.05
2022-12-25T06:13:41.691Z,96767.72
2022-12-25T06:16:11.449Z,96769.14
2022-12-25T06:18:41.368Z,96768.86
2022-12-25T06:21:10.651Z,96772.05
2022-12-25T06:23:38.049Z,96775.90
2022-12-25T06:26:08.027Z,96782.80
2022-12-25T06:28:34.996Z,96782.05
2022-12-25T06:31:10.666Z,96788.91
2022-12-25T06:33:38.371Z,96800.52
2022-12-25T06:36:07.722Z,96800.34
2022-12-25T06:38:34.525Z,96805.34
2022-12-25T06:41:05.219Z,96808.06
2022-12-25T06:43:34.769Z,96812.47
2022-12-25T06:46:04.978Z,96810.83
2022-12-25T06:48:33.417Z,96814.48
2022-12-25T06:51:00.230Z,96819.30
2022-12-25T06:53:31.173Z,96821.27
2022-12-25T06:56:05.001Z,96829.03
2022-12-25T06:58:32.242Z,96831.23
2022-12-25T07:00:58.981Z,96832.19
2022-12-25T07:03:29.281Z,96832.71
2022-12-25T07:05:55.988Z,96835.95
2022-12-25T07:08:22.434Z,96840.95
2022-12-25T07:10:49.005Z,96844.20
2022-12-25T07:13:15.413Z,96846.27
2022-12-25T07:15:42.043Z,96856.56
2022-12-25T07:18:08.710Z,96859.13
2022-12-25T07:20:36.258Z,96856.92
2022-12-25T07:23:02.831Z,96860.80
2022-12-25T07:25:35.245Z,96865.16
2022-12-25T07:28:03.720Z,96863.66
2022-12-25T07:30:30.239Z,96864.96
2022-12-25T07:32:56.994Z,96870.17
2022-12-25T07:35:23.398Z,96874.89
2022-12-25T07:37:49.934Z,96875.89
2022-12-25T07:40:16.387Z,96876.57
2022-12-25T07:42:42.833Z,96872.75
2022-12-25T07:45:09.865Z,96874.73
2022-12-25T07:47:36.329Z,96880.80
2022-12-25T07:50:03.015Z,96878.42
2022-12-25T07:52:29.452Z,96883.66
2022-12-25T07:54:55.843Z,96891.23
2022-12-25T07:57:22.267Z,96895.70
2022-12-25T07:59:48.841Z,96903.98
2022-12-25T08:02:15.714Z,96907.08
2022-12-25T08:04:42.861Z,96910.98
2022-12-25T08:07:09.287Z,96920.34
2022-12-25T08:09:36.163Z,96931.31
2022-12-25T08:12:02.726Z,96933.48
2022-12-25T08:14:29.198Z,96934.19
2022-12-25T08:16:55.829Z,96933.87
2022-12-25T08:19:22.264Z,96938.66
2022-12-25T08:21:48.769Z,96946.64
2022-12-25T08:24:15.299Z,96952.02
2022-12-25T08:26:41.759Z,96954.95
2022-12-25T08:29:08.274Z,96956.34
2022-12-25T08:31:35.788Z,96955.20
2022-12-25T08:34:04.989Z,96965.38
2022-12-25T08:36:31.574Z,96968.16
2022-12-25T08:39:02.670Z,96963.94
2022-12-25T08:41:31.100Z,96965.73
2022-12-25T08:43:58.200Z,96963.23
2022-12-25T08:46:24.676Z,96955.27
2022-12-25T08:48:51.137Z,96951.33
2022-12-25T08:51:20.810Z,96950.30
2022-12-25T08:53:50.262Z,96955.30
2022-12-25T08:56:18.727Z,96959.73
2022-12-25T08:58:45.709Z,96959.45
2022-12-25T09:01:13.176Z,96961.52
2022-12-25T09:03:39.855Z,96962.64
2022-12-25T09:06:10.474Z,96963.40
2022-12-25T09:08:42.409Z,96966.20
2022-12-25T09:11:14.613Z,96961.48
2022-12-25T09:13:41.316Z,96957.84
2022-12-25T09:16:10.973Z,96957.98
2022-12-25T09:18:38.272Z,96967.72
2022-12-25T09:21:09.442Z,96972.98
2022-12-25T09:23:36.459Z,96982.48
2022-12-25T09:26:05.654Z,96983.96
2022-12-25T09:28:32.176Z,96984.28
2022-12-25T09:30:58.847Z,96984.06
2022-12-25T09:33:25.473Z,96987.14
2022-12-25T09:35:53.583Z,96984.84
2022-12-25T09:38:20.067Z,96974.75
2022-12-25T09:40:47.929Z,96973.63
2022-12-25T09:43:20.136Z,96979.45
2022-12-25T09:45:47.157Z,96984.77
2022-12-25T09:48:15.208Z,96987.35
2022-12-25T09:50:49.427Z,96983.22
2022-12-25T09:53:22.576Z,96985.20
2022-12-25T09:56:00.617Z,96989.24
2022-12-25T09:58:29.847Z,96989.77
2022-12-25T10:01:07.344Z,96988.19
2022-12-25T10:03:58.177Z,96989.55
2022-12-25T10:06:38.008Z,96990.39
2022-12-25T10:09:40.330Z,96996.16
2022-12-25T10:12:30.436Z,96993.77
2022-12-25T10:15:30.966Z,96991.98
2022-12-25T10:18:31.071Z,96984.23
2022-12-25T10:21:01.438Z,96982.80
2022-12-25T10:23:36.266Z,96980.91
2022-12-25T10:26:03.775Z,96978.73
2022-12-25T10:28:40.167Z,96982.53
2022-12-25T10:31:20.450Z,96980.79
2022-12-25T10:33:50.463Z,96978.52
2022-12-25T10:36:21.262Z,96982.63
2022-12-25T10:38:48.546Z,96986.28
2022-12-25T10:41:33.655Z,96984.74
2022-12-25T10:44:00.897Z,96988.66
2022-12-25T10:46:30.689Z,96979.21
2022-12-25T10:49:00.449Z,96980.75
2022-12-25T10:51:39.118Z,96979.25
2022-12-25T10:54:25.833Z,96979.89
2022-12-25T10:57:04.288Z,96988.78
2022-12-25T10:59:35.411Z,96988.83
2022-12-25T11:02:18.627Z,96984.59
2022-12-25T11:04:45.855Z,96979.55
2022-12-25T11:07:23.662Z,96978.00
2022-12-25T11:09:57.802Z,96971.92
2022-12-25T11:12:32.232Z,96966.50
2022-12-25T11:15:01.632Z,96959.77
2022-12-25T11:17:28.133Z,96960.40
2022-12-25T11:19:57.376Z,96963.27
2022-12-25T11:22:26.101Z,96957.45
2022-12-25T11:25:14.208Z,96961.58
2022-12-25T11:27:42.681Z,96972.45
2022-12-25T11:30:16.219Z,96975.84
2022-12-25T11:32:46.007Z,96976.23
2022-12-25T11:35:15.600Z,96975.06
2022-12-25T11:37:49.696Z,96975.84
2022-12-25T11:40:35.299Z,96975.41
2022-12-25T11:43:12.668Z,96977.09
2022-12-25T11:45:47.918Z,96982.02
2022-12-25T11:48:25.470Z,96977.83
2022-12-25T11:50:58.570Z,96983.13
2022-12-25T11:53:34.365Z,96981.45
2022-12-25T11:56:06.100Z,96980.92
2022-12-25T11:58:41.535Z,96978.11
2022-12-25T12:01:24.757Z,96980.16
2022-12-25T12:03:54.461Z,96985.29
2022-12-25T12:06:43.077Z,96985.19
2022-12-25T12:09:49.663Z,96986.23
2022-12-25T12:12:40.651Z,96982.13
2022-12-25T12:15:27.513Z,96980.69
2022-12-25T12:18:08.181Z,96980.48
2022-12-25T12:20:39.815Z,96987.90
2022-12-25T12:23:14.961Z,96995.64
2022-12-25T12:25:45.098Z,96996.14
2022-12-25T12:28:26.403Z,96999.52
2022-12-25T12:31:04.043Z,97004.44
2022-12-25T12:33:39.432Z,97002.58
2022-12-25T12:36:10.744Z,97006.38
2022-12-25T12:38:40.362Z,97009.08
2022-12-25T12:41:12.187Z,97015.09
2022-12-25T12:43:52.359Z,97023.97
2022-12-25T12:46:31.503Z,97028.69
2022-12-25T12:49:29.651Z,97029.36
2022-12-25T12:52:32.599Z,97028.08
2022-12-25T12:55:06.097Z,97033.75
2022-12-25T12:57:39.203Z,97035.45
2022-12-25T13:00:17.806Z,97038.44
2022-12-25T13:03:02.217Z,97038.14
2022-12-25T13:05:45.634Z,97036.71
2022-12-25T13:08:30.032Z,97033.33
2022-12-25T13:11:17.670Z,97031.40
2022-12-25T13:13:45.817Z,97036.08
2022-12-25T13:16:28.786Z,97037.00
2022-12-25T13:18:56.657Z,97033.38
2022-12-25T13:21:26.691Z,97031.11
2022-12-25T13:23:58.916Z,97037.04
2022-12-25T13:26:26.963Z,97038.96
2022-12-25T13:28:55.395Z,97040.58
2022-12-25T13:31:25.637Z,97035.20
2022-12-25T13:34:04.412Z,97035.67
2022-12-25T13:36:37.198Z,97039.07
2022-12-25T13:39:08.070Z,97042.13
2022-12-25T13:41:53.034Z,97039.79
2022-12-25T13:44:24.176Z,97055.04
2022-12-25T13:46:51.112Z,97063.83
2022-12-25T13:49:21.167Z,97052.95
2022-12-25T13:51:48.696Z,97049.73
2022-12-25T13:54:17.386Z,97056.94
2022-12-25T13:56:50.121Z,97047.17
2022-12-25T13:59:20.293Z,97047.95
2022-12-25T14:01:49.056Z,97052.77
2022-12-25T14:04:20.070Z,97052.98
2022-12-25T14:06:47.647Z,97053.73
2022-12-25T14:09:15.680Z,97057.41
2022-12-25T14:11:46.113Z,97052.30
2022-12-25T14:14:19.037Z,97051.79
2022-12-25T14:16:48.941Z,97058.43
2022-12-25T14:19:26.029Z,97061.28
2022-12-25T14:22:00.532Z,97062.52
2022-12-25T14:24:29.365Z,97066.77
2022-12-25T14:26:58.366Z,97064.41
2022-12-25T14:29:28.607Z,97070.42
2022-12-25T14:31:58.140Z,97071.63
2022-12-25T14:34:27.173Z,97070.48
2022-12-25T14:36:54.273Z,97071.22
2022-12-25T14:39:30.717Z,97072.02
2022-12-25T14:41:57.243Z,97070.71
2022-12-25T14:44:33.983Z,97074.72
2022-12-25T14:47:18.909Z,97076.09
2022-12-25T14:49:46.616Z,97083.30
2022-12-25T14:52:22.006Z,97089.84
2022-12-25T14:54:53.477Z,97094.23
2022-12-25T14:57:26.623Z,97093.73
2022-12-25T14:59:57.089Z,97095.15
2022-12-25T15:02:24.494Z,97093.36
2022-12-25T15:04:53.965Z,97094.08
2022-12-25T15:07:30.346Z,97093.40
2022-12-25T15:10:27.008Z,97099.33
2022-12-25T15:12:43.552Z,97094.11
2022-12-25T15:15:10.224Z,97098.60
2022-12-25T15:17:37.553Z,97105.37
2022-12-25T15:20:05.698Z,97109.45
2022-12-25T15:22:53.913Z,97113.05
2022-12-25T15:25:21.072Z,97123.67
2022-12-25T15:27:48.067Z,97124.96
2022-12-25T15:30:15.080Z,97130.48
2022-12-25T15:32:41.532Z,97130.95
2022-12-25T15:35:15.973Z,97132.16
2022-12-25T15:37:42.534Z,97133.72
2022-12-25T15:40:12.293Z,97137.95
2022-12-25T15:42:39.491Z,97139.70
2022-12-25T15:45:18.376Z,97137.55
2022-12-25T15:47:45.280Z,97143.61
2022-12-25T15:50:11.858Z,97144.61
2022-12-25T15:52:38.403Z,97142.73
2022-12-25T15:55:05.928Z,97140.50
2022-12-25T15:57:34.425Z,97143.04
2022-12-25T16:00:03.140Z,97143.15
2022-12-25T16:02:41.081Z,97147.91
2022-12-25T16:05:10.433Z,97154.61
2022-12-25T16:07:37.370Z,97158.84
2022-12-25T16:10:05.940Z,97165.64
2022-12-25T16:12:32.601Z,97171.79
2022-12-25T16:14:59.057Z,97175.61
2022-12-25T16:17:25.626Z,97174.02
2022-12-25T16:19:52.182Z,97167.85
2022-12-25T16:22:22.386Z,97160.77
2022-12-25T16:24:49.311Z,97153.85
2022-12-25T16:27:15.722Z,97155.25
2022-12-25T16:29:42.152Z,97156.34
2022-12-25T16:32:11.535Z,97152.66
2022-12-25T16:34:38.070Z,97147.48
2022-12-25T16:37:04.895Z,97146.33
2022-12-25T16:39:31.644Z,97141.41
2022-12-25T16:41:58.461Z,97141.23
2022-12-25T16:44:24.911Z,97137.70
2022-12-25T16:46:51.553Z,97133.25
2022-12-25T16:49:17.941Z,97134.73
2022-12-25T16:51:44.458Z,97134.48
2022-12-25T16:54:10.962Z,97133.17
2022-12-25T16:56:37.711Z,97132.75
2022-12-25T16:59:04.147Z,97132.55
2022-12-25T17:01:30.794Z,97134.81
2022-12-25T17:04:00.759Z,97130.20
2022-12-25T17:06:28.323Z,97125.41
2022-12-25T17:08:57.705Z,97130.89
2022-12-25T17:11:28.895Z,97140.63
2022-12-25T17:13:59.861Z,97140.85
2022-12-25T17:16:29.408Z,97129.50
2022-12-25T17:19:01.473Z,97116.45
2022-12-25T17:21:29.111Z,97105.45
2022-12-25T17:24:02.943Z,97109.17
2022-12-25T17:26:32.958Z,97108.53
2022-12-25T17:28:59.874Z,97103.58
2022-12-25T17:31:27.647Z,97100.55
2022-12-25T17:33:54.374Z,97104.71
2022-12-25T17:36:21.428Z,97114.80
2022-12-25T17:38:48.315Z,97118.23
2022-12-25T17:41:16.928Z,97121.16
2022-12-25T17:43:44.835Z,97129.64
2022-12-25T17:46:21.973Z,97134.67
2022-12-25T17:48:49.600Z,97135.44
2022-12-25T17:51:20.415Z,97142.52
2022-12-25T17:53:50.280Z,97145.73
2022-12-25T17:56:18.472Z,97151.03
2022-12-25T17:58:51.023Z,97150.77
2022-12-25T18:01:19.070Z,97150.01
2022-12-25T18:03:45.899Z,97149.94
2022-12-25T18:06:16.157Z,97145.17
2022-12-25T18:08:43.845Z,97137.23
2022-12-25T18:11:14.502Z,97137.98
2022-12-25T18:13:44.505Z,97133.02
2022-12-25T18:16:15.335Z,97132.70
2022-12-25T18:18:47.990Z,97133.06
2022-12-25T18:21:19.117Z,97126.50
2022-12-25T18:23:45.739Z,97133.98
2022-12-25T18:26:12.826Z,97134.20
2022-12-25T18:28:39.575Z,97125.58
2022-12-25T18:31:08.590Z,97113.09
2022-12-25T18:33:35.575Z,97112.91
2022-12-25T18:36:05.614Z,97117.86
2022-12-25T18:38:35.576Z,97123.94
2022-12-25T18:41:05.657Z,97126.55
2022-12-25T18:43:52.320Z,97125.77
2022-12-25T18:46:23.498Z,97128.07
2022-12-25T18:48:50.110Z,97124.64
2022-12-25T18:51:16.857Z,97125.50
2022-12-25T18:53:43.348Z,97132.61
2022-12-25T18:56:13.008Z,97139.42
2022-12-25T18:58:40.789Z,97144.91
2022-12-25T19:01:17.747Z,97149.09
2022-12-25T19:03:45.607Z,97151.62
2022-12-25T19:06:23.267Z,97151.98
2022-12-25T19:08:49.829Z,97153.35
2022-12-25T19:11:16.556Z,97154.70
2022-12-25T19:13:44.365Z,97156.05
2022-12-25T19:16:11.786Z,97159.37
2022-12-25T19:18:39.184Z,97159.89
2022-12-25T19:21:08.010Z,97163.23
2022-12-25T19:23:38.515Z,97162.91
2022-12-25T19:26:07.288Z,97156.48
2022-12-25T19:28:40.260Z,97152.95
2022-12-25T19:31:08.445Z,97150.82
2022-12-25T19:33:40.563Z,97150.84
2022-12-25T19:36:10.973Z,97150.23
2022-12-25T19:38:38.065Z,97143.60
2022-12-25T19:41:12.507Z,97139.91
2022-12-25T19:43:41.482Z,97144.93
2022-12-25T19:46:15.956Z,97147.64
2022-12-25T19:48:45.639Z,97149.67
2022-12-25T19:51:28.914Z,97143.35
2022-12-25T19:53:55.707Z,97139.80
2022-12-25T19:56:27.514Z,97135.80
2022-12-25T19:58:55.128Z,97136.65
2022-12-25T20:01:24.393Z,97138.81
2022-12-25T20:03:51.342Z,97141.19
2022-12-25T20:06:25.685Z,97137.39
2022-12-25T20:08:56.093Z,97137.45
2022-12-25T20:11:24.900Z,97128.24
2022-12-25T20:13:51.744Z,97124.36
2022-12-25T20:16:18.392Z,97123.41
2022-12-25T20:18:45.391Z,97121.29
2022-12-25T20:21:14.641Z,97122.39
2022-12-25T20:23:42.502Z,97125.66
2022-12-25T20:26:10.189Z,97135.73
2022-12-25T20:28:38.203Z,97142.20
2022-12-25T20:31:07.641Z,97141.48
2022-12-25T20:33:35.159Z,97144.20
2022-12-25T20:36:03.021Z,97148.64
2022-12-25T20:38:36.322Z,97150.36
2022-12-25T20:41:29.725Z,97158.12
2022-12-25T20:43:56.774Z,97157.22
2022-12-25T20:46:24.941Z,97157.81
2022-12-25T20:48:53.095Z,97155.51
2022-12-25T20:51:22.394Z,97151.68
2022-12-25T20:53:50.226Z,97162.51
2022-12-25T20:56:18.996Z,97163.16
2022-12-25T20:58:45.729Z,97169.91
2022-12-25T21:01:15.495Z,97178.14
2022-12-25T21:03:42.200Z,97181.37
2022-12-25T21:06:09.244Z,97187.27
2022-12-25T21:08:36.504Z,97190.42
2022-12-25T21:11:04.893Z,97187.52
2022-12-25T21:13:34.390Z,97191.91
2022-12-25T21:16:04.941Z,97189.74
2022-12-25T21:18:35.045Z,97181.19
2022-12-25T21:21:06.846Z,97182.49
2022-12-25T21:23:35.086Z,97189.23
2022-12-25T21:26:31.195Z,97193.38
2022-12-25T21:29:00.046Z,97198.64
2022-12-25T21:31:27.160Z,97201.91
2022-12-25T21:33:56.745Z,97206.75
2022-12-25T21:36:26.942Z,97204.06
2022-12-25T21:38:56.938Z,97203.95
2022-12-25T21:41:25.170Z,97210.96
2022-12-25T21:43:51.827Z,97212.46
2022-12-25T21:46:19.135Z,97208.34
2022-12-25T21:48:45.932Z,97206.42
2022-12-25T21:51:35.052Z,97207.20
2022-12-25T21:54:02.633Z,97210.20
2022-12-25T21:56:31.034Z,97204.35
2022-12-25T21:58:59.727Z,97203.63
2022-12-25T22:01:28.274Z,97205.23
2022-12-25T22:03:56.078Z,97208.30
2022-12-25T22:06:35.959Z,97211.10
2022-12-25T22:09:06.181Z,97209.21
2022-12-25T22:11:46.360Z,97209.50
2022-12-25T22:14:50.300Z,97201.54
2022-12-25T22:17:26.717Z,97186.79
2022-12-25T22:19:53.843Z,97176.80
2022-12-25T22:22:23.651Z,97173.91
2022-12-25T22:24:52.627Z,97179.35
2022-12-25T22:27:21.069Z,97178.25
2022-12-25T22:29:51.405Z,97170.25
2022-12-25T22:32:18.909Z,97168.15
2022-12-25T22:34:45.430Z,97161.25
2022-12-25T22:37:16.433Z,97166.95
2022-12-25T22:39:43.696Z,97169.21
2022-12-25T22:42:11.332Z,97171.60
2022-12-25T22:44:37.929Z,97174.05
2022-12-25T22:47:04.566Z,97176.46
2022-12-25T22:49:30.942Z,97177.49
2022-12-25T22:51:57.391Z,97181.95
2022-12-25T22:54:24.830Z,97184.08
2022-12-25T22:56:52.689Z,97186.98
2022-12-25T22:59:20.968Z,97188.45
2022-12-25T23:01:48.531Z,97186.03
2022-12-25T23:04:15.425Z,97182.16
2022-12-25T23:06:43.381Z,97175.38
2022-12-25T23:09:18.866Z,97170.29
2022-12-25T23:11:49.752Z,97169.45
2022-12-25T23:14:30.028Z,97173.17
2022-12-25T23:16:57.210Z,97174.05
2022-12-25T23:19:40.326Z,97171.08
2022-12-25T23:22:20.496Z,97172.36
2022-12-25T23:25:00.658Z,97176.38
2022-12-25T23:27:27.155Z,97178.41
2022-12-25T23:29:53.557Z,97174.89
2022-12-25T23:32:24.786Z,97177.05
2022-12-25T23:34:52.127Z,97176.25
2022-12-25T23:37:19.010Z,97172.66
2022-12-25T23:39:46.503Z,97173.91
2022-12-25T23:42:16.244Z,97182.05
2022-12-25T23:44:43.971Z,97185.31
2022-12-25T23:47:11.227Z,97180.12
2022-12-25T23:49:38.004Z,97177.24
2022-12-25T23:52:05.033Z,97180.63
2022-12-25T23:54:32.878Z,97188.86
2022-12-25T23:56:59.889Z,97184.30
2022-12-25T23:59:28.493Z,97189.75
